sensor_id;sensor_type;location;lat;lon;timestamp;pressure;altitude;pressure_sealevel;temperature;humidity
53246;BME280;39569;51.090;-1.786;2023-11-21T00:00:21;100875.97;;;20.53;45.52
53246;BME280;39569;51.090;-1.786;2023-11-21T00:02:49;100883.56;;;20.51;45.63
53246;BME280;39569;51.090;-1.786;2023-11-21T00:05:16;100896.22;;;20.16;46.37
53246;BME280;39569;51.090;-1.786;2023-11-21T00:07:43;100893.72;;;20.03;46.47
53246;BME280;39569;51.090;-1.786;2023-11-21T00:10:10;100898.28;;;20.32;45.97
53246;BME280;39569;51.090;-1.786;2023-11-21T00:12:39;100895.16;;;20.17;46.22
53246;BME280;39569;51.090;-1.786;2023-11-21T00:15:08;100900.88;;;20.38;46.11
53246;BME280;39569;51.090;-1.786;2023-11-21T00:17:36;100899.44;;;20.24;46.23
53246;BME280;39569;51.090;-1.786;2023-11-21T00:20:05;100896.75;;;20.71;45.21
53246;BME280;39569;51.090;-1.786;2023-11-21T00:22:33;100893.34;;;20.64;45.07
53246;BME280;39569;51.090;-1.786;2023-11-21T00:25:00;100896.06;;;20.52;45.43
53246;BME280;39569;51.090;-1.786;2023-11-21T00:27:26;100896.00;;;20.17;45.92
53246;BME280;39569;51.090;-1.786;2023-11-21T00:29:53;100902.56;;;20.10;45.97
53246;BME280;39569;51.090;-1.786;2023-11-21T00:32:20;100892.41;;;19.94;46.48
53246;BME280;39569;51.090;-1.786;2023-11-21T00:34:47;100896.56;;;19.78;46.79
53246;BME280;39569;51.090;-1.786;2023-11-21T00:37:15;100896.38;;;20.21;45.88
53246;BME280;39569;51.090;-1.786;2023-11-21T00:39:42;100896.22;;;20.16;45.82
53246;BME280;39569;51.090;-1.786;2023-11-21T00:42:08;100894.97;;;19.23;47.75
53246;BME280;39569;51.090;-1.786;2023-11-21T00:44:37;100909.44;;;19.53;47.45
53246;BME280;39569;51.090;-1.786;2023-11-21T00:47:04;100910.63;;;19.87;46.13
53246;BME280;39569;51.090;-1.786;2023-11-21T00:49:31;100916.28;;;19.37;47.01
53246;BME280;39569;51.090;-1.786;2023-11-21T00:51:58;100917.97;;;19.68;46.71
53246;BME280;39569;51.090;-1.786;2023-11-21T00:54:27;100926.16;;;19.80;46.76
53246;BME280;39569;51.090;-1.786;2023-11-21T00:56:53;100915.94;;;19.27;47.58
53246;BME280;39569;51.090;-1.786;2023-11-21T00:59:20;100928.06;;;19.61;47.10
53246;BME280;39569;51.090;-1.786;2023-11-21T01:01:48;100924.25;;;19.50;47.29
53246;BME280;39569;51.090;-1.786;2023-11-21T01:04:15;100927.19;;;19.49;47.83
53246;BME280;39569;51.090;-1.786;2023-11-21T01:06:41;100917.50;;;19.41;47.72
53246;BME280;39569;51.090;-1.786;2023-11-21T01:09:08;100928.81;;;19.68;47.62
53246;BME280;39569;51.090;-1.786;2023-11-21T01:11:37;100924.28;;;19.80;47.75
53246;BME280;39569;51.090;-1.786;2023-11-21T01:14:04;100931.84;;;19.60;48.09
53246;BME280;39569;51.090;-1.786;2023-11-21T01:16:32;100935.16;;;19.26;48.99
53246;BME280;39569;51.090;-1.786;2023-11-21T01:18:58;100934.72;;;19.29;48.83
53246;BME280;39569;51.090;-1.786;2023-11-21T01:21:25;100941.38;;;19.63;48.51
53246;BME280;39569;51.090;-1.786;2023-11-21T01:23:53;100945.78;;;19.45;49.16
53246;BME280;39569;51.090;-1.786;2023-11-21T01:26:20;100959.25;;;18.91;50.26
53246;BME280;39569;51.090;-1.786;2023-11-21T01:28:48;100957.28;;;19.59;49.62
53246;BME280;39569;51.090;-1.786;2023-11-21T01:31:15;100958.59;;;19.56;49.67
53246;BME280;39569;51.090;-1.786;2023-11-21T01:33:42;100958.22;;;19.83;49.02
53246;BME280;39569;51.090;-1.786;2023-11-21T01:36:09;100961.44;;;19.43;50.43
53246;BME280;39569;51.090;-1.786;2023-11-21T01:38:36;100965.03;;;19.55;50.01
53246;BME280;39569;51.090;-1.786;2023-11-21T01:41:04;100957.19;;;19.29;50.70
53246;BME280;39569;51.090;-1.786;2023-11-21T01:43:31;100965.19;;;19.42;50.66
53246;BME280;39569;51.090;-1.786;2023-11-21T01:45:59;100968.69;;;19.79;49.80
53246;BME280;39569;51.090;-1.786;2023-11-21T01:48:27;100979.28;;;19.99;49.64
53246;BME280;39569;51.090;-1.786;2023-11-21T01:50:55;100985.44;;;19.76;50.04
53246;BME280;39569;51.090;-1.786;2023-11-21T01:53:23;100985.06;;;20.02;49.26
53246;BME280;39569;51.090;-1.786;2023-11-21T01:55:51;100994.22;;;19.90;49.82
53246;BME280;39569;51.090;-1.786;2023-11-21T01:58:19;100999.03;;;19.88;50.10
53246;BME280;39569;51.090;-1.786;2023-11-21T02:00:47;101004.19;;;19.17;51.50
53246;BME280;39569;51.090;-1.786;2023-11-21T02:03:17;101010.75;;;20.00;49.73
53246;BME280;39569;51.090;-1.786;2023-11-21T02:05:44;101016.69;;;19.79;50.06
53246;BME280;39569;51.090;-1.786;2023-11-21T02:08:11;101014.03;;;19.72;50.33
53246;BME280;39569;51.090;-1.786;2023-11-21T02:10:38;101012.63;;;19.70;50.18
53246;BME280;39569;51.090;-1.786;2023-11-21T02:13:03;101025.03;;;19.41;50.94
53246;BME280;39569;51.090;-1.786;2023-11-21T02:15:31;101020.34;;;19.66;50.23
53246;BME280;39569;51.090;-1.786;2023-11-21T02:17:58;101028.09;;;19.63;50.34
53246;BME280;39569;51.090;-1.786;2023-11-21T02:20:27;101033.31;;;19.82;50.58
53246;BME280;39569;51.090;-1.786;2023-11-21T02:22:57;101035.72;;;20.38;48.97
53246;BME280;39569;51.090;-1.786;2023-11-21T02:25:25;101041.34;;;20.25;49.17
53246;BME280;39569;51.090;-1.786;2023-11-21T02:27:53;101047.16;;;19.74;50.21
53246;BME280;39569;51.090;-1.786;2023-11-21T02:30:20;101057.16;;;19.74;50.25
53246;BME280;39569;51.090;-1.786;2023-11-21T02:32:47;101055.41;;;20.33;49.04
53246;BME280;39569;51.090;-1.786;2023-11-21T02:35:14;101070.44;;;19.45;50.94
53246;BME280;39569;51.090;-1.786;2023-11-21T02:37:42;101068.75;;;19.63;50.61
53246;BME280;39569;51.090;-1.786;2023-11-21T02:40:11;101066.34;;;20.27;49.41
53246;BME280;39569;51.090;-1.786;2023-11-21T02:42:39;101066.34;;;19.91;50.51
53246;BME280;39569;51.090;-1.786;2023-11-21T02:45:07;101069.22;;;20.14;49.89
53246;BME280;39569;51.090;-1.786;2023-11-21T02:47:34;101075.78;;;20.06;49.74
53246;BME280;39569;51.090;-1.786;2023-11-21T02:50:01;101080.06;;;20.14;49.43
53246;BME280;39569;51.090;-1.786;2023-11-21T02:52:27;101086.56;;;19.58;50.94
53246;BME280;39569;51.090;-1.786;2023-11-21T02:54:54;101084.81;;;19.64;50.77
53246;BME280;39569;51.090;-1.786;2023-11-21T02:57:22;101076.94;;;20.46;49.33
53246;BME280;39569;51.090;-1.786;2023-11-21T02:59:49;101074.47;;;20.09;49.55
53246;BME280;39569;51.090;-1.786;2023-11-21T03:02:16;101072.69;;;20.21;49.14
53246;BME280;39569;51.090;-1.786;2023-11-21T03:04:42;101078.56;;;20.18;49.31
53246;BME280;39569;51.090;-1.786;2023-11-21T03:07:09;101065.75;;;20.25;48.97
53246;BME280;39569;51.090;-1.786;2023-11-21T03:09:36;101074.56;;;20.50;48.37
53246;BME280;39569;51.090;-1.786;2023-11-21T03:12:03;101082.25;;;19.69;50.10
53246;BME280;39569;51.090;-1.786;2023-11-21T03:14:31;101073.06;;;20.06;49.95
53246;BME280;39569;51.090;-1.786;2023-11-21T03:16:58;101069.63;;;20.47;48.38
53246;BME280;39569;51.090;-1.786;2023-11-21T03:19:25;101080.00;;;20.50;48.47
53246;BME280;39569;51.090;-1.786;2023-11-21T03:21:52;101085.72;;;19.94;49.58
53246;BME280;39569;51.090;-1.786;2023-11-21T03:24:19;101092.72;;;20.02;49.84
53246;BME280;39569;51.090;-1.786;2023-11-21T03:26:48;101085.25;;;20.33;48.92
53246;BME280;39569;51.090;-1.786;2023-11-21T03:29:15;101103.94;;;20.05;49.77
53246;BME280;39569;51.090;-1.786;2023-11-21T03:31:43;101102.97;;;20.36;49.01
53246;BME280;39569;51.090;-1.786;2023-11-21T03:34:15;101109.59;;;19.86;50.53
53246;BME280;39569;51.090;-1.786;2023-11-21T03:36:43;101109.31;;;19.94;50.47
53246;BME280;39569;51.090;-1.786;2023-11-21T03:39:11;101111.53;;;20.15;49.28
53246;BME280;39569;51.090;-1.786;2023-11-21T03:41:38;101113.97;;;20.05;49.40
53246;BME280;39569;51.090;-1.786;2023-11-21T03:44:05;101126.56;;;20.17;49.13
53246;BME280;39569;51.090;-1.786;2023-11-21T03:46:31;101128.56;;;19.86;49.94
53246;BME280;39569;51.090;-1.786;2023-11-21T03:48:59;101133.31;;;19.90;50.14
53246;BME280;39569;51.090;-1.786;2023-11-21T03:51:26;101137.13;;;19.65;50.25
53246;BME280;39569;51.090;-1.786;2023-11-21T03:53:53;101141.44;;;19.72;50.00
53246;BME280;39569;51.090;-1.786;2023-11-21T03:56:20;101145.44;;;19.70;50.43
53246;BME280;39569;51.090;-1.786;2023-11-21T03:58:47;101151.06;;;19.68;50.38
53246;BME280;39569;51.090;-1.786;2023-11-21T04:01:19;101146.22;;;20.31;49.12
53246;BME280;39569;51.090;-1.786;2023-11-21T04:03:47;101154.66;;;20.05;49.32
53246;BME280;39569;51.090;-1.786;2023-11-21T04:06:15;101151.63;;;20.31;49.00
53246;BME280;39569;51.090;-1.786;2023-11-21T04:08:42;101156.91;;;20.08;49.21
53246;BME280;39569;51.090;-1.786;2023-11-21T04:11:09;101161.50;;;19.89;49.53
53246;BME280;39569;51.090;-1.786;2023-11-21T04:13:37;101161.34;;;20.02;49.38
53246;BME280;39569;51.090;-1.786;2023-11-21T04:16:04;101144.94;;;20.33;48.85
53246;BME280;39569;51.090;-1.786;2023-11-21T04:18:31;101157.50;;;20.46;48.30
53246;BME280;39569;51.090;-1.786;2023-11-21T04:20:59;101163.09;;;20.33;48.26
53246;BME280;39569;51.090;-1.786;2023-11-21T04:23:28;101168.06;;;20.54;48.16
53246;BME280;39569;51.090;-1.786;2023-11-21T04:25:55;101179.03;;;19.87;49.28
53246;BME280;39569;51.090;-1.786;2023-11-21T04:28:22;101175.06;;;19.89;49.46
53246;BME280;39569;51.090;-1.786;2023-11-21T04:30:49;101179.22;;;19.67;49.45
53246;BME280;39569;51.090;-1.786;2023-11-21T04:33:16;101174.09;;;19.77;49.61
53246;BME280;39569;51.090;-1.786;2023-11-21T04:35:44;101174.50;;;20.41;48.32
53246;BME280;39569;51.090;-1.786;2023-11-21T04:38:11;101183.63;;;20.29;48.20
53246;BME280;39569;51.090;-1.786;2023-11-21T04:40:39;101182.41;;;20.43;48.16
53246;BME280;39569;51.090;-1.786;2023-11-21T04:43:06;101187.63;;;19.84;49.09
53246;BME280;39569;51.090;-1.786;2023-11-21T04:45:33;101192.59;;;19.87;48.92
53246;BME280;39569;51.090;-1.786;2023-11-21T04:47:59;101197.31;;;19.48;50.21
53246;BME280;39569;51.090;-1.786;2023-11-21T04:50:26;101202.41;;;20.06;48.80
53246;BME280;39569;51.090;-1.786;2023-11-21T04:52:53;101200.78;;;19.55;50.01
53246;BME280;39569;51.090;-1.786;2023-11-21T04:55:20;101214.00;;;20.13;48.67
53246;BME280;39569;51.090;-1.786;2023-11-21T04:57:48;101210.81;;;20.40;47.86
53246;BME280;39569;51.090;-1.786;2023-11-21T05:00:15;101214.63;;;19.72;49.17
53246;BME280;39569;51.090;-1.786;2023-11-21T05:02:42;101221.84;;;20.03;48.94
53246;BME280;39569;51.090;-1.786;2023-11-21T05:05:09;101228.34;;;20.20;47.95
53246;BME280;39569;51.090;-1.786;2023-11-21T05:07:36;101231.84;;;20.27;48.12
53246;BME280;39569;51.090;-1.786;2023-11-21T05:10:04;101230.19;;;20.62;47.63
53246;BME280;39569;51.090;-1.786;2023-11-21T05:12:33;101243.78;;;20.62;47.25
53246;BME280;39569;51.090;-1.786;2023-11-21T05:15:04;101233.00;;;20.85;47.23
53246;BME280;39569;51.090;-1.786;2023-11-21T05:17:35;101247.16;;;20.39;48.01
53246;BME280;39569;51.090;-1.786;2023-11-21T05:20:02;101250.84;;;20.27;48.16
53246;BME280;39569;51.090;-1.786;2023-11-21T05:22:33;101259.38;;;20.48;47.61
53246;BME280;39569;51.090;-1.786;2023-11-21T05:25:00;101261.25;;;20.48;47.52
53246;BME280;39569;51.090;-1.786;2023-11-21T05:27:28;101271.81;;;20.38;47.71
53246;BME280;39569;51.090;-1.786;2023-11-21T05:29:55;101271.63;;;20.33;47.60
53246;BME280;39569;51.090;-1.786;2023-11-21T05:32:23;101273.66;;;19.95;48.45
53246;BME280;39569;51.090;-1.786;2023-11-21T05:34:50;101283.13;;;20.10;48.01
53246;BME280;39569;51.090;-1.786;2023-11-21T05:37:16;101288.69;;;20.15;47.57
53246;BME280;39569;51.090;-1.786;2023-11-21T05:39:43;101283.78;;;20.30;47.14
53246;BME280;39569;51.090;-1.786;2023-11-21T05:42:10;101292.06;;;20.35;47.27
53246;BME280;39569;51.090;-1.786;2023-11-21T05:44:37;101288.31;;;19.87;48.02
53246;BME280;39569;51.090;-1.786;2023-11-21T05:47:07;101292.41;;;20.45;46.91
53246;BME280;39569;51.090;-1.786;2023-11-21T05:49:35;101300.44;;;20.34;47.12
53246;BME280;39569;51.090;-1.786;2023-11-21T05:52:02;101312.03;;;20.23;47.49
53246;BME280;39569;51.090;-1.786;2023-11-21T05:54:30;101320.13;;;19.98;47.63
53246;BME280;39569;51.090;-1.786;2023-11-21T05:56:56;101315.28;;;19.82;48.29
53246;BME280;39569;51.090;-1.786;2023-11-21T05:59:23;101315.66;;;19.86;48.04
53246;BME280;39569;51.090;-1.786;2023-11-21T06:01:50;101312.69;;;19.63;48.29
53246;BME280;39569;51.090;-1.786;2023-11-21T06:04:17;101319.94;;;19.69;48.61
53246;BME280;39569;51.090;-1.786;2023-11-21T06:06:45;101323.56;;;19.87;48.57
53246;BME280;39569;51.090;-1.786;2023-11-21T06:09:12;101329.25;;;19.79;48.34
53246;BME280;39569;51.090;-1.786;2023-11-21T06:11:39;101335.34;;;19.43;49.37
53246;BME280;39569;51.090;-1.786;2023-11-21T06:14:06;101344.53;;;19.29;49.72
53246;BME280;39569;51.090;-1.786;2023-11-21T06:16:35;101350.75;;;19.43;49.28
53246;BME280;39569;51.090;-1.786;2023-11-21T06:19:02;101349.56;;;18.69;51.04
53246;BME280;39569;51.090;-1.786;2023-11-21T06:21:28;101355.63;;;18.38;52.07
53246;BME280;39569;51.090;-1.786;2023-11-21T06:23:56;101360.44;;;18.23;52.39
53246;BME280;39569;51.090;-1.786;2023-11-21T06:26:23;101363.97;;;18.10;52.16
53246;BME280;39569;51.090;-1.786;2023-11-21T06:28:51;101364.38;;;18.40;50.91
53246;BME280;39569;51.090;-1.786;2023-11-21T06:31:18;101354.19;;;18.29;50.79
53246;BME280;39569;51.090;-1.786;2023-11-21T06:33:45;101370.59;;;17.95;51.67
53246;BME280;39569;51.090;-1.786;2023-11-21T06:36:12;101372.66;;;17.80;51.64
53246;BME280;39569;51.090;-1.786;2023-11-21T06:38:38;101374.06;;;17.62;51.79
53246;BME280;39569;51.090;-1.786;2023-11-21T06:41:07;101379.97;;;18.18;50.96
53246;BME280;39569;51.090;-1.786;2023-11-21T06:43:33;101375.31;;;17.53;51.65
53246;BME280;39569;51.090;-1.786;2023-11-21T06:46:01;101383.28;;;17.27;52.29
53246;BME280;39569;51.090;-1.786;2023-11-21T06:48:28;101380.50;;;17.48;52.07
53246;BME280;39569;51.090;-1.786;2023-11-21T06:50:55;101383.06;;;17.83;50.57
53246;BME280;39569;51.090;-1.786;2023-11-21T06:53:22;101397.84;;;17.33;51.34
53246;BME280;39569;51.090;-1.786;2023-11-21T06:55:48;101399.34;;;16.95;52.30
53246;BME280;39569;51.090;-1.786;2023-11-21T06:58:16;101398.22;;;17.64;50.73
53246;BME280;39569;51.090;-1.786;2023-11-21T07:00:43;101407.59;;;17.88;49.51
53246;BME280;39569;51.090;-1.786;2023-11-21T07:03:12;101412.63;;;17.97;49.24
53246;BME280;39569;51.090;-1.786;2023-11-21T07:05:39;101416.41;;;18.29;48.22
53246;BME280;39569;51.090;-1.786;2023-11-21T07:08:06;101424.47;;;17.90;49.30
53246;BME280;39569;51.090;-1.786;2023-11-21T07:10:33;101441.97;;;18.26;47.95
53246;BME280;39569;51.090;-1.786;2023-11-21T07:13:00;101441.47;;;17.77;48.97
53246;BME280;39569;51.090;-1.786;2023-11-21T07:15:28;101446.50;;;17.93;48.95
53246;BME280;39569;51.090;-1.786;2023-11-21T07:17:55;101463.69;;;17.32;48.98
53246;BME280;39569;51.090;-1.786;2023-11-21T07:20:22;101471.38;;;17.76;48.34
53246;BME280;39569;51.090;-1.786;2023-11-21T07:22:49;101464.84;;;18.17;47.29
53246;BME280;39569;51.090;-1.786;2023-11-21T07:25:16;101490.88;;;17.58;48.32
53246;BME280;39569;51.090;-1.786;2023-11-21T07:27:42;101487.22;;;17.79;47.68
53246;BME280;39569;51.090;-1.786;2023-11-21T07:30:10;101486.75;;;18.42;46.60
53246;BME280;39569;51.090;-1.786;2023-11-21T07:32:39;101492.72;;;18.18;47.20
53246;BME280;39569;51.090;-1.786;2023-11-21T07:35:07;101494.69;;;18.56;45.74
53246;BME280;39569;51.090;-1.786;2023-11-21T07:37:34;101486.16;;;17.80;46.85
53246;BME280;39569;51.090;-1.786;2023-11-21T07:40:00;101494.88;;;18.68;45.24
53246;BME280;39569;51.090;-1.786;2023-11-21T07:42:28;101495.50;;;18.57;44.87
53246;BME280;39569;51.090;-1.786;2023-11-21T07:44:54;101500.28;;;18.48;44.89
53246;BME280;39569;51.090;-1.786;2023-11-21T07:47:21;101511.88;;;18.23;45.66
53246;BME280;39569;51.090;-1.786;2023-11-21T07:49:54;101517.97;;;18.97;44.35
53246;BME280;39569;51.090;-1.786;2023-11-21T07:52:21;101526.28;;;18.43;44.99
53246;BME280;39569;51.090;-1.786;2023-11-21T07:54:48;101527.28;;;18.35;45.42
53246;BME280;39569;51.090;-1.786;2023-11-21T07:57:14;101523.59;;;19.02;44.15
53246;BME280;39569;51.090;-1.786;2023-11-21T07:59:41;101524.03;;;18.53;45.11
53246;BME280;39569;51.090;-1.786;2023-11-21T08:02:08;101534.25;;;17.97;45.73
53246;BME280;39569;51.090;-1.786;2023-11-21T08:04:35;101532.88;;;18.21;45.74
53246;BME280;39569;51.090;-1.786;2023-11-21T08:07:03;101531.50;;;18.44;45.32
53246;BME280;39569;51.090;-1.786;2023-11-21T08:09:30;101539.94;;;18.15;45.50
53246;BME280;39569;51.090;-1.786;2023-11-21T08:11:57;101535.88;;;18.52;44.99
53246;BME280;39569;51.090;-1.786;2023-11-21T08:14:26;101543.09;;;18.32;45.68
53246;BME280;39569;51.090;-1.786;2023-11-21T08:16:52;101556.75;;;18.04;46.37
53246;BME280;39569;51.090;-1.786;2023-11-21T08:19:23;101549.00;;;18.75;45.16
53246;BME280;39569;51.090;-1.786;2023-11-21T08:21:50;101560.75;;;18.28;46.06
53246;BME280;39569;51.090;-1.786;2023-11-21T08:24:20;101553.97;;;18.51;46.42
53246;BME280;39569;51.090;-1.786;2023-11-21T08:26:47;101552.97;;;19.05;44.67
53246;BME280;39569;51.090;-1.786;2023-11-21T08:29:14;101562.31;;;18.63;45.63
53246;BME280;39569;51.090;-1.786;2023-11-21T08:31:40;101558.91;;;18.35;46.61
53246;BME280;39569;51.090;-1.786;2023-11-21T08:34:07;101562.13;;;18.71;45.68
53246;BME280;39569;51.090;-1.786;2023-11-21T08:36:34;101561.84;;;17.80;47.21
53246;BME280;39569;51.090;-1.786;2023-11-21T08:39:00;101568.72;;;18.42;46.73
53246;BME280;39569;51.090;-1.786;2023-11-21T08:41:29;101573.34;;;18.61;46.63
53246;BME280;39569;51.090;-1.786;2023-11-21T08:43:55;101575.94;;;18.16;47.03
53246;BME280;39569;51.090;-1.786;2023-11-21T08:46:23;101591.16;;;18.30;46.82
53246;BME280;39569;51.090;-1.786;2023-11-21T08:48:51;101588.28;;;17.91;47.97
53246;BME280;39569;51.090;-1.786;2023-11-21T08:51:18;101588.84;;;18.27;47.36
53246;BME280;39569;51.090;-1.786;2023-11-21T08:53:45;101594.75;;;18.43;46.92
53246;BME280;39569;51.090;-1.786;2023-11-21T08:56:13;101599.53;;;18.41;46.75
53246;BME280;39569;51.090;-1.786;2023-11-21T08:58:41;101602.03;;;18.43;46.97
53246;BME280;39569;51.090;-1.786;2023-11-21T09:01:08;101609.78;;;18.72;46.16
53246;BME280;39569;51.090;-1.786;2023-11-21T09:03:35;101623.88;;;18.41;46.92
53246;BME280;39569;51.090;-1.786;2023-11-21T09:06:02;101607.91;;;18.59;46.83
53246;BME280;39569;51.090;-1.786;2023-11-21T09:08:29;101603.16;;;18.75;46.41
53246;BME280;39569;51.090;-1.786;2023-11-21T09:10:57;101609.78;;;18.72;46.44
53246;BME280;39569;51.090;-1.786;2023-11-21T09:13:24;101612.69;;;18.51;46.98
53246;BME280;39569;51.090;-1.786;2023-11-21T09:15:52;101606.06;;;18.80;46.60
53246;BME280;39569;51.090;-1.786;2023-11-21T09:18:19;101608.75;;;18.67;46.66
53246;BME280;39569;51.090;-1.786;2023-11-21T09:20:46;101607.53;;;18.15;48.16
53246;BME280;39569;51.090;-1.786;2023-11-21T09:23:13;101609.59;;;18.87;46.39
53246;BME280;39569;51.090;-1.786;2023-11-21T09:25:41;101604.16;;;18.60;46.59
53246;BME280;39569;51.090;-1.786;2023-11-21T09:28:11;101618.06;;;17.63;48.12
53246;BME280;39569;51.090;-1.786;2023-11-21T09:30:38;101633.34;;;18.18;47.84
53246;BME280;39569;51.090;-1.786;2023-11-21T09:33:06;101639.38;;;18.80;46.75
53246;BME280;39569;51.090;-1.786;2023-11-21T09:35:35;101632.00;;;18.48;47.01
53246;BME280;39569;51.090;-1.786;2023-11-21T09:38:03;101638.25;;;18.48;46.88
53246;BME280;39569;51.090;-1.786;2023-11-21T09:40:31;101640.22;;;19.07;45.85
53246;BME280;39569;51.090;-1.786;2023-11-21T09:42:58;101646.09;;;19.23;44.91
53246;BME280;39569;51.090;-1.786;2023-11-21T09:45:27;101648.22;;;19.34;45.22
53246;BME280;39569;51.090;-1.786;2023-11-21T09:47:54;101655.44;;;18.88;45.76
53246;BME280;39569;51.090;-1.786;2023-11-21T09:50:24;101667.50;;;18.92;46.77
53246;BME280;39569;51.090;-1.786;2023-11-21T09:52:55;101667.81;;;18.50;46.64
53246;BME280;39569;51.090;-1.786;2023-11-21T09:55:27;101664.00;;;19.05;46.23
53246;BME280;39569;51.090;-1.786;2023-11-21T09:57:56;101667.56;;;19.44;45.21
53246;BME280;39569;51.090;-1.786;2023-11-21T10:00:23;101674.88;;;19.50;44.79
53246;BME280;39569;51.090;-1.786;2023-11-21T10:02:50;101676.44;;;18.26;47.66
53246;BME280;39569;51.090;-1.786;2023-11-21T10:05:19;101685.59;;;18.31;47.57
53246;BME280;39569;51.090;-1.786;2023-11-21T10:07:50;101680.81;;;18.87;47.28
53246;BME280;39569;51.090;-1.786;2023-11-21T10:10:18;101677.38;;;19.32;46.41
53246;BME280;39569;51.090;-1.786;2023-11-21T10:12:49;101688.22;;;19.52;45.76
53246;BME280;39569;51.090;-1.786;2023-11-21T10:15:21;101689.31;;;18.64;47.62
53246;BME280;39569;51.090;-1.786;2023-11-21T10:17:48;101696.50;;;19.11;46.66
53246;BME280;39569;51.090;-1.786;2023-11-21T10:20:16;101694.03;;;19.42;46.00
53246;BME280;39569;51.090;-1.786;2023-11-21T10:22:43;101693.38;;;19.21;45.96
53246;BME280;39569;51.090;-1.786;2023-11-21T10:25:12;101693.19;;;19.29;46.46
53246;BME280;39569;51.090;-1.786;2023-11-21T10:27:41;101695.28;;;19.66;45.55
53246;BME280;39569;51.090;-1.786;2023-11-21T10:30:09;101699.22;;;19.90;44.91
53246;BME280;39569;51.090;-1.786;2023-11-21T10:32:37;101703.84;;;19.70;45.21
53246;BME280;39569;51.090;-1.786;2023-11-21T10:35:06;101715.94;;;18.61;47.79
53246;BME280;39569;51.090;-1.786;2023-11-21T10:37:35;101709.97;;;18.85;47.67
53246;BME280;39569;51.090;-1.786;2023-11-21T10:40:05;101701.50;;;19.21;47.00
53246;BME280;39569;51.090;-1.786;2023-11-21T10:42:34;101696.53;;;19.70;46.38
53246;BME280;39569;51.090;-1.786;2023-11-21T10:45:00;101704.06;;;19.35;46.25
53246;BME280;39569;51.090;-1.786;2023-11-21T10:47:30;101702.19;;;19.49;46.57
53246;BME280;39569;51.090;-1.786;2023-11-21T10:49:57;101708.66;;;18.68;48.14
53246;BME280;39569;51.090;-1.786;2023-11-21T10:52:27;101708.19;;;18.45;49.54
53246;BME280;39569;51.090;-1.786;2023-11-21T10:54:54;101711.75;;;18.52;49.11
53246;BME280;39569;51.090;-1.786;2023-11-21T10:57:22;101707.59;;;19.36;48.07
53246;BME280;39569;51.090;-1.786;2023-11-21T10:59:53;101700.50;;;19.68;47.21
53246;BME280;39569;51.090;-1.786;2023-11-21T11:02:23;101712.13;;;19.03;48.76
53246;BME280;39569;51.090;-1.786;2023-11-21T11:04:53;101708.97;;;18.86;49.34
53246;BME280;39569;51.090;-1.786;2023-11-21T11:07:21;101711.34;;;19.41;48.42
53246;BME280;39569;51.090;-1.786;2023-11-21T11:09:52;101715.72;;;19.36;48.75
53246;BME280;39569;51.090;-1.786;2023-11-21T11:12:19;101719.75;;;18.73;49.47
53246;BME280;39569;51.090;-1.786;2023-11-21T11:14:47;101714.38;;;18.93;50.04
53246;BME280;39569;51.090;-1.786;2023-11-21T11:17:17;101709.47;;;19.48;48.98
53246;BME280;39569;51.090;-1.786;2023-11-21T11:19:46;101712.13;;;19.09;49.77
53246;BME280;39569;51.090;-1.786;2023-11-21T11:22:24;101700.72;;;19.40;49.54
53246;BME280;39569;51.090;-1.786;2023-11-21T11:25:06;101707.78;;;19.74;48.59
53246;BME280;39569;51.090;-1.786;2023-11-21T11:27:47;101715.63;;;18.97;49.92
53246;BME280;39569;51.090;-1.786;2023-11-21T11:30:23;101719.41;;;19.15;50.06
53246;BME280;39569;51.090;-1.786;2023-11-21T11:33:03;101716.97;;;19.86;48.54
53246;BME280;39569;51.090;-1.786;2023-11-21T11:35:34;101713.03;;;19.62;49.08
53246;BME280;39569;51.090;-1.786;2023-11-21T11:38:05;101713.66;;;19.38;49.29
53246;BME280;39569;51.090;-1.786;2023-11-21T11:40:41;101711.13;;;19.63;49.01
53246;BME280;39569;51.090;-1.786;2023-11-21T11:43:08;101709.00;;;19.25;49.67
53246;BME280;39569;51.090;-1.786;2023-11-21T11:45:35;101710.31;;;19.75;48.84
53246;BME280;39569;51.090;-1.786;2023-11-21T11:48:08;101719.88;;;19.38;49.90
53246;BME280;39569;51.090;-1.786;2023-11-21T11:50:42;101718.41;;;19.82;48.70
53246;BME280;39569;51.090;-1.786;2023-11-21T11:53:33;101713.41;;;19.72;48.88
53246;BME280;39569;51.090;-1.786;2023-11-21T11:56:20;101719.25;;;19.63;49.38
53246;BME280;39569;51.090;-1.786;2023-11-21T11:58:48;101727.38;;;19.95;48.37
53246;BME280;39569;51.090;-1.786;2023-11-21T12:01:16;101719.47;;;19.94;48.46
53246;BME280;39569;51.090;-1.786;2023-11-21T12:04:24;101724.41;;;20.03;47.98
53246;BME280;39569;51.090;-1.786;2023-11-21T12:06:57;101721.31;;;19.87;48.57
53246;BME280;39569;51.090;-1.786;2023-11-21T12:09:26;101722.44;;;20.56;47.07
53246;BME280;39569;51.090;-1.786;2023-11-21T12:11:55;101716.50;;;20.21;47.96
53246;BME280;39569;51.090;-1.786;2023-11-21T12:14:23;101729.81;;;20.36;47.35
53246;BME280;39569;51.090;-1.786;2023-11-21T12:16:50;101733.16;;;20.38;47.18
53246;BME280;39569;51.090;-1.786;2023-11-21T12:19:19;101742.66;;;20.60;47.02
53246;BME280;39569;51.090;-1.786;2023-11-21T12:21:48;101736.50;;;20.33;47.91
53246;BME280;39569;51.090;-1.786;2023-11-21T12:24:15;101745.94;;;20.75;47.03
53246;BME280;39569;51.090;-1.786;2023-11-21T12:26:43;101736.22;;;20.54;47.32
53246;BME280;39569;51.090;-1.786;2023-11-21T12:29:10;101747.19;;;20.73;46.79
53246;BME280;39569;51.090;-1.786;2023-11-21T12:31:37;101740.22;;;20.45;47.28
53246;BME280;39569;51.090;-1.786;2023-11-21T12:34:04;101744.09;;;20.69;46.54
53246;BME280;39569;51.090;-1.786;2023-11-21T12:36:34;101745.84;;;20.88;46.77
53246;BME280;39569;51.090;-1.786;2023-11-21T12:39:02;101745.78;;;20.64;47.09
53246;BME280;39569;51.090;-1.786;2023-11-21T12:41:29;101753.72;;;20.65;46.59
53246;BME280;39569;51.090;-1.786;2023-11-21T12:43:57;101755.63;;;20.58;47.41